Time;durP1;ratioP1;P1;durP2;ratioP2;P2;SDS_P1;SDS_P2;PMS_P1;PMS_P2;Temp;Humidity;BMP_temperature;BMP_pressure;BME280_temperature;BME280_humidity;BME280_pressure;Samples;Min_cycle;Max_cycle;Signal;HPM_P1;HPM_P2
2023/04/30 02:58:54;;;;;;;20.87;14.83;;;;;;;15.15;64.17;101033.78;4746128;30;20252;-74
2023/04/30 05:03:21;;;;;;;22.50;16.17;;;;;;;14.78;65.71;101050.19;4712359;30;20232;-71
2023/04/30 05:32:35;;;;;;;26.80;16.93;;;;;;;14.79;65.60;101057.19;4740116;30;20211;-73
2023/04/30 05:49:57;;;;;;;21.30;17.03;;;;;;;15.11;65.18;101060.00;4731839;29;20225;-68
2023/04/30 05:52:25;;;;;;;26.00;17.23;;;;;;;15.17;65.10;101067.34;4788592;29;20272;-66
2023/04/30 05:54:53;;;;;;;22.77;17.47;;;;;;;15.25;64.39;101070.03;4789153;29;21019;-63
2023/04/30 05:57:21;;;;;;;21.50;15.87;;;;;;;15.25;64.12;101063.84;4787096;29;20226;-67
2023/04/30 05:59:50;;;;;;;22.67;16.63;;;;;;;15.32;64.50;101068.38;4800004;29;20247;-65
2023/04/30 06:02:18;;;;;;;23.57;15.73;;;;;;;15.35;64.42;101073.41;4807497;29;20216;-67
2023/04/30 06:04:47;;;;;;;25.83;15.83;;;;;;;15.38;64.24;101070.41;4805083;29;21087;-67
2023/04/30 06:07:17;;;;;;;21.47;15.67;;;;;;;15.36;64.19;101068.88;4807551;29;20223;-67
2023/04/30 06:09:44;;;;;;;24.23;16.47;;;;;;;15.35;64.07;101064.53;4806224;29;20216;-67
2023/04/30 06:12:12;;;;;;;23.20;15.83;;;;;;;15.41;63.86;101067.38;4807910;29;20223;-68
2023/04/30 06:14:50;;;;;;;20.93;16.17;;;;;;;15.43;64.05;101067.22;4807318;29;20253;-68
2023/04/30 06:17:18;;;;;;;21.13;16.67;;;;;;;15.40;63.97;101063.03;4811879;29;20654;-64
2023/04/30 06:19:46;;;;;;;20.23;15.90;;;;;;;15.51;64.02;101074.41;4816217;29;20287;-65
2023/04/30 06:22:16;;;;;;;26.53;16.53;;;;;;;15.58;64.14;101072.78;4816070;29;20211;-67
2023/04/30 06:24:46;;;;;;;25.27;17.07;;;;;;;15.59;63.68;101067.25;4813572;29;20250;-65
2023/04/30 06:27:14;;;;;;;23.63;16.00;;;;;;;15.61;63.22;101067.09;4818033;29;20226;-67
2023/04/30 06:29:42;;;;;;;24.33;17.33;;;;;;;15.71;62.96;101062.44;4815194;29;20239;-66
2023/04/30 06:32:10;;;;;;;26.77;17.17;;;;;;;15.75;62.71;101061.91;4813860;29;20251;-65
2023/04/30 06:34:39;;;;;;;21.47;15.60;;;;;;;15.73;62.41;101063.09;4815033;29;20302;-66
2023/04/30 06:37:10;;;;;;;22.43;16.70;;;;;;;15.80;62.37;101064.09;4813245;29;20248;-66
2023/04/30 06:39:38;;;;;;;22.00;15.90;;;;;;;15.87;62.52;101069.63;4814458;29;20236;-67
2023/04/30 06:42:10;;;;;;;23.70;16.93;;;;;;;15.92;61.98;101067.28;4815602;29;20224;-66
2023/04/30 06:44:38;;;;;;;19.47;15.10;;;;;;;15.95;62.05;101072.28;4814806;29;20220;-67
2023/04/30 06:47:24;;;;;;;25.33;16.23;;;;;;;15.95;61.73;101067.75;4812847;29;20579;-67
2023/04/30 06:50:22;;;;;;;22.60;15.77;;;;;;;15.99;61.38;101074.47;4721446;30;20228;-67
2023/04/30 06:56:20;;;;;;;22.53;15.40;;;;;;;16.01;61.55;101075.09;4724551;30;20227;-67
2023/04/30 06:58:51;;;;;;;24.87;15.07;;;;;;;16.02;61.97;101074.09;4745846;29;20237;-67
2023/04/30 07:01:20;;;;;;;20.70;13.10;;;;;;;16.02;62.04;101083.97;4813321;29;20246;-67
2023/04/30 07:03:58;;;;;;;;;;;;;;;;;;;;;
2023/04/30 07:06:28;;;;;;;17.67;13.57;;;;;;;16.19;62.13;101072.25;4794956;29;20978;-66
2023/04/30 07:08:56;;;;;;;20.00;14.43;;;;;;;16.18;62.11;101074.09;4807809;29;20231;-68
2023/04/30 07:11:30;;;;;;;18.90;13.33;;;;;;;16.23;61.86;101067.41;4809027;29;20216;-67
2023/04/30 07:14:03;;;;;;;18.13;13.57;;;;;;;16.29;61.04;101074.75;4809061;29;21198;-68
2023/04/30 07:16:33;;;;;;;21.63;13.80;;;;;;;16.25;60.78;101068.06;4806030;29;20232;-68
2023/04/30 07:19:01;;;;;;;18.90;13.90;;;;;;;16.21;60.98;101072.09;4807880;29;20223;-68
2023/04/30 07:21:33;;;;;;;21.60;13.57;;;;;;;16.23;61.79;101076.25;4809790;29;20241;-68
2023/04/30 07:24:01;;;;;;;19.13;11.97;;;;;;;16.32;61.45;101077.09;4809724;29;20618;-66
2023/04/30 07:26:38;;;;;;;18.73;12.60;;;;;;;16.43;60.87;101069.53;4811821;29;20216;-66
2023/04/30 07:29:07;;;;;;;17.17;10.43;;;;;;;16.44;60.73;101065.84;4811192;29;20232;-68
2023/04/30 07:31:35;;;;;;;13.70;10.13;;;;;;;16.43;60.53;101066.84;4810148;29;20217;-69
2023/04/30 07:34:03;;;;;;;15.93;9.57;;;;;;;16.46;60.30;101071.00;4812293;29;20225;-67
2023/04/30 07:36:34;;;;;;;13.50;9.37;;;;;;;16.63;59.85;101072.66;4810711;29;20216;-67
2023/04/30 07:39:06;;;;;;;14.03;9.40;;;;;;;16.66;59.82;101061.63;4811699;29;20217;-68
2023/04/30 07:41:35;;;;;;;12.87;10.33;;;;;;;16.78;59.29;101068.28;4810321;29;20240;-68
2023/04/30 07:44:03;;;;;;;13.20;9.37;;;;;;;16.92;58.36;101061.34;4810375;29;20221;-68
2023/04/30 07:46:33;;;;;;;12.67;9.07;;;;;;;17.05;57.80;101055.41;4810578;29;20732;-67
2023/04/30 07:49:02;;;;;;;14.33;8.50;;;;;;;17.20;56.64;101064.38;4808215;29;20233;-68
2023/04/30 07:51:31;;;;;;;15.70;9.33;;;;;;;17.43;56.13;101053.66;4806890;29;20307;-66
2023/04/30 07:54:00;;;;;;;11.00;7.70;;;;;;;17.55;55.41;101058.44;4809792;29;20261;-66
2023/04/30 07:56:28;;;;;;;15.10;8.60;;;;;;;17.66;54.87;101062.56;4807184;29;20303;-68
2023/04/30 07:58:57;;;;;;;9.07;6.67;;;;;;;17.75;55.31;101064.19;4807472;29;20248;-67
2023/04/30 08:01:28;;;;;;;10.77;7.47;;;;;;;17.83;54.77;101066.78;4808429;29;20220;-68
2023/04/30 08:03:58;;;;;;;10.43;7.43;;;;;;;17.93;54.86;101064.69;4810920;29;20238;-68
2023/04/30 08:06:27;;;;;;;10.47;7.07;;;;;;;18.05;54.60;101059.69;4804106;29;20292;-68
2023/04/30 08:08:56;;;;;;;11.33;7.23;;;;;;;18.08;53.52;101059.34;4808641;29;20220;-66
2023/04/30 08:11:24;;;;;;;12.90;7.37;;;;;;;18.18;53.40;101057.25;4808870;29;20827;-66
2023/04/30 08:13:55;;;;;;;8.27;6.33;;;;;;;18.28;52.91;101056.97;4807914;29;20579;-68
2023/04/30 08:16:23;;;;;;;12.20;6.43;;;;;;;18.39;52.92;101051.97;4806546;29;20240;-68
2023/04/30 08:18:51;;;;;;;8.40;5.93;;;;;;;18.57;52.32;101042.72;4808901;29;20220;-69
2023/04/30 08:21:21;;;;;;;9.00;6.63;;;;;;;18.66;52.44;101047.81;4808392;29;20243;-66
2023/04/30 08:23:52;;;;;;;9.90;6.67;;;;;;;18.82;52.52;101052.19;4808013;29;20346;-67
2023/04/30 08:26:31;;;;;;;8.70;6.50;;;;;;;18.90;51.69;101038.63;4808242;29;20273;-69
2023/04/30 08:28:59;;;;;;;10.17;6.10;;;;;;;19.07;51.23;101050.00;4806891;29;20288;-68
2023/04/30 08:31:27;;;;;;;8.97;5.20;;;;;;;19.07;48.29;101045.44;4809852;29;20230;-69
2023/04/30 08:33:55;;;;;;;10.07;4.67;;;;;;;19.04;47.93;101053.88;4810207;29;20228;-70
2023/04/30 08:36:24;;;;;;;7.97;4.10;;;;;;;19.12;48.28;101042.19;4806339;29;20299;-68
2023/04/30 08:38:52;;;;;;;8.50;4.07;;;;;;;19.36;48.52;101046.34;4808011;29;20231;-66
2023/04/30 08:41:25;;;;;;;8.27;4.27;;;;;;;19.32;47.21;101053.16;4805287;29;20236;-69
2023/04/30 08:43:53;;;;;;;7.73;4.43;;;;;;;19.40;44.99;101050.34;4807280;29;20216;-67
2023/04/30 08:46:23;;;;;;;8.13;4.20;;;;;;;19.60;45.04;101051.41;4806582;29;20272;-70
2023/04/30 08:48:51;;;;;;;7.80;4.07;;;;;;;19.53;44.06;101040.56;4808747;29;20225;-68
2023/04/30 08:51:20;;;;;;;5.87;4.00;;;;;;;19.71;44.98;101047.34;4808218;29;21094;-67
2023/04/30 08:53:55;;;;;;;6.73;3.87;;;;;;;19.88;44.62;101041.47;4808272;29;20256;-68
2023/04/30 08:56:23;;;;;;;6.13;3.53;;;;;;;19.85;43.29;101049.97;4807287;29;20215;-69
2023/04/30 08:58:54;;;;;;;6.50;3.30;;;;;;;19.72;42.33;101051.69;4806720;29;20259;-68
2023/04/30 09:01:23;;;;;;;4.57;3.07;;;;;;;19.41;42.51;101058.22;4806516;29;20715;-67
2023/04/30 09:03:51;;;;;;;8.00;3.33;;;;;;;19.23;43.25;101059.66;4808874;29;20228;-68
2023/04/30 09:06:19;;;;;;;5.73;3.47;;;;;;;19.06;42.90;101059.91;4808005;29;20213;-69
2023/04/30 09:08:48;;;;;;;6.23;4.03;;;;;;;18.92;42.46;101055.38;4808307;29;20220;-69
2023/04/30 09:11:25;;;;;;;6.03;3.70;;;;;;;18.86;43.00;101056.13;4806067;29;20308;-68
2023/04/30 09:13:56;;;;;;;6.67;3.50;;;;;;;18.75;43.57;101052.06;4806674;29;20216;-68
2023/04/30 09:16:24;;;;;;;4.67;3.00;;;;;;;18.72;44.29;101055.16;4806351;29;20734;-68
2023/04/30 09:18:52;;;;;;;5.83;3.53;;;;;;;18.67;44.26;101049.47;4804922;29;20564;-68
2023/04/30 09:21:32;;;;;;;6.33;3.77;;;;;;;18.61;44.65;101050.25;4804095;29;20252;-68
2023/04/30 09:24:01;;;;;;;6.87;3.40;;;;;;;18.58;44.54;101041.72;4805093;29;20335;-68
2023/04/30 09:26:34;;;;;;;6.30;3.90;;;;;;;18.60;45.13;101031.63;4806229;29;20307;-68
2023/04/30 09:29:06;;;;;;;5.47;4.07;;;;;;;18.55;45.25;101040.22;4807133;29;20697;-69
2023/04/30 09:31:35;;;;;;;5.70;3.53;;;;;;;18.62;45.74;101040.34;4806833;29;20289;-69
2023/04/30 09:34:04;;;;;;;12.87;7.67;;;;;;;18.87;45.88;101032.78;4805751;29;20220;-68
2023/04/30 09:36:33;;;;;;;8.17;4.13;;;;;;;19.30;45.72;101039.06;4805538;29;20610;-67
2023/04/30 09:39:10;;;;;;;16.27;4.17;;;;;;;19.54;45.01;101030.63;4806108;29;20220;-68
2023/04/30 09:41:43;;;;;;;6.17;3.97;;;;;;;19.45;44.35;101042.50;4804685;29;20248;-69
2023/04/30 09:44:26;;;;;;;8.60;3.97;;;;;;;19.37;44.47;101034.56;4807310;29;20311;-68
2023/04/30 09:46:54;;;;;;;6.23;4.00;;;;;;;19.28;45.25;101035.72;4804957;29;21959;-67
2023/04/30 09:49:22;;;;;;;5.80;3.80;;;;;;;19.23;45.55;101027.41;4802893;29;20216;-68
2023/04/30 09:51:56;;;;;;;5.70;3.30;;;;;;;19.28;45.66;101024.97;4807725;29;20620;-66
2023/04/30 09:54:27;;;;;;;4.53;3.07;;;;;;;19.38;44.51;101029.00;4808778;29;20224;-69
2023/04/30 09:56:57;;;;;;;6.77;2.87;;;;;;;19.35;45.05;101031.25;4807602;29;20212;-68
2023/04/30 09:59:30;;;;;;;3.63;2.70;;;;;;;19.35;45.49;101032.06;4806558;29;20252;-69
2023/04/30 10:02:00;;;;;;;5.63;3.50;;;;;;;19.30;44.98;101039.88;4807485;29;20266;-68
2023/04/30 10:04:30;;;;;;;5.60;3.33;;;;;;;19.30;45.67;101036.38;4805126;29;20311;-67
2023/04/30 10:07:01;;;;;;;5.13;3.33;;;;;;;19.29;45.64;101030.16;4812616;29;20219;-66
2023/04/30 10:09:35;;;;;;;8.73;3.13;;;;;;;19.39;44.44;101019.09;4809466;29;21211;-67
2023/04/30 10:12:12;;;;;;;8.70;3.27;;;;;;;19.54;45.62;101015.31;4812726;29;20200;-67
2023/04/30 10:14:55;;;;;;;7.23;2.70;;;;;;;19.52;45.45;101014.72;4810421;29;20220;-70
2023/04/30 10:17:27;;;;;;;6.30;2.97;;;;;;;19.58;44.27;101010.41;4812090;29;20295;-67
2023/04/30 10:20:02;;;;;;;4.87;2.80;;;;;;;19.54;43.67;101018.00;4813563;29;20949;-69
2023/04/30 10:22:30;;;;;;;3.90;2.43;;;;;;;19.53;43.18;101015.50;4815155;29;20230;-68
2023/04/30 10:25:00;;;;;;;3.77;2.33;;;;;;;19.48;41.85;101012.59;4817605;29;20325;-68
2023/04/30 10:27:30;;;;;;;3.60;2.20;;;;;;;19.86;40.62;101005.88;4819226;29;20213;-68
2023/04/30 10:29:59;;;;;;;3.77;2.10;;;;;;;20.43;38.74;100999.41;4821744;29;20221;-66
2023/04/30 10:32:44;;;;;;;5.03;1.93;;;;;;;20.97;38.04;100995.91;4820618;29;20216;-65
2023/04/30 10:35:19;;;;;;;4.10;1.80;;;;;;;21.55;37.11;100990.84;4822764;29;20239;-67
2023/04/30 10:37:53;;;;;;;3.17;1.70;;;;;;;21.95;35.85;100984.38;4818053;29;20220;-66
2023/04/30 10:40:22;;;;;;;4.67;1.90;;;;;;;22.50;35.92;100982.19;4816149;29;20213;-68
2023/04/30 10:42:54;;;;;;;6.20;1.90;;;;;;;22.79;34.79;100978.94;4818956;29;20308;-68
2023/04/30 10:45:36;;;;;;;3.10;1.63;;;;;;;23.16;32.84;100981.84;4821927;29;20209;-67
2023/04/30 10:48:04;;;;;;;5.20;1.73;;;;;;;23.59;33.92;100977.41;4817275;29;20222;-65
2023/04/30 10:50:32;;;;;;;2.45;1.52;;;;;;;23.66;33.06;100973.81;4825645;29;20217;-67
2023/04/30 10:53:03;;;;;;;5.90;1.60;;;;;;;23.55;33.97;100972.66;4826171;29;20219;-65
2023/04/30 10:55:38;;;;;;;3.20;1.80;;;;;;;23.47;34.39;100978.31;4823185;29;20873;-67
2023/04/30 10:58:23;;;;;;;3.85;1.65;;;;;;;22.94;34.83;100964.31;4822734;29;20208;-67
2023/04/30 11:00:59;;;;;;;3.55;1.52;;;;;;;22.65;36.15;100963.81;4824797;29;20220;-68
2023/04/30 11:03:30;;;;;;;3.03;1.30;;;;;;;22.51;36.75;100962.22;4819118;29;20224;-68
2023/04/30 11:06:11;;;;;;;4.37;1.53;;;;;;;22.39;36.52;100956.66;4820538;29;20262;-67
2023/04/30 11:08:47;;;;;;;3.30;1.63;;;;;;;22.12;36.66;100958.59;4823697;29;20228;-67
2023/04/30 11:11:19;;;;;;;6.03;1.70;;;;;;;21.85;35.44;100950.75;4818210;29;20237;-67
2023/04/30 11:14:00;;;;;;;4.40;1.47;;;;;;;21.59;35.50;100951.59;4817662;29;20228;-66
2023/04/30 11:16:30;;;;;;;2.00;1.30;;;;;;;21.34;34.49;100946.00;4819299;29;20220;-65
2023/04/30 11:19:06;;;;;;;3.87;1.47;;;;;;;21.10;35.16;100951.97;4821929;29;20274;-67
2023/04/30 11:21:40;;;;;;;3.03;1.30;;;;;;;20.95;35.68;100946.72;4826738;29;20280;-66
2023/04/30 11:24:08;;;;;;;3.60;1.60;;;;;;;20.90;36.01;100951.91;4824680;29;20312;-66
2023/04/30 11:27:03;;;;;;;1.60;1.07;;;;;;;20.74;35.66;100955.81;4823991;29;20227;-67
2023/04/30 11:29:33;;;;;;;2.13;1.13;;;;;;;20.67;35.38;100956.84;4824000;29;20209;-67
2023/04/30 11:32:00;;;;;;;5.90;1.80;;;;;;;20.61;36.32;100953.91;4815659;29;20212;-66
2023/04/30 11:34:29;;;;;;;2.90;1.50;;;;;;;20.69;36.65;100946.66;4818790;29;20220;-66
2023/04/30 11:36:59;;;;;;;3.80;1.43;;;;;;;20.79;35.88;100945.25;4817770;29;20230;-68
2023/04/30 11:39:29;;;;;;;3.80;1.53;;;;;;;20.80;35.72;100940.69;4821231;29;20252;-66
2023/04/30 11:41:57;;;;;;;3.47;1.77;;;;;;;20.74;36.23;100930.75;4818684;29;20244;-67
2023/04/30 11:44:26;;;;;;;6.30;1.20;;;;;;;20.73;36.31;100939.84;4822589;29;20221;-66
2023/04/30 11:46:56;;;;;;;1.77;1.30;;;;;;;20.71;37.23;100925.75;4827163;29;20319;-64
2023/04/30 11:49:27;;;;;;;3.77;1.53;;;;;;;20.69;38.16;100925.94;4829681;29;20217;-63
2023/04/30 11:51:54;;;;;;;3.07;1.50;;;;;;;20.57;36.41;100925.72;4821341;29;20226;-63
2023/04/30 11:54:22;;;;;;;2.43;1.57;;;;;;;20.70;36.05;100922.22;4807945;29;20220;-64
2023/04/30 11:56:50;;;;;;;3.40;1.57;;;;;;;20.73;36.71;100926.38;4807305;29;20231;-64
2023/04/30 11:59:19;;;;;;;3.50;1.77;;;;;;;20.81;36.65;100926.19;4805862;29;20252;-66
2023/04/30 12:01:47;;;;;;;2.57;1.37;;;;;;;20.83;34.58;100919.56;4806650;29;20216;-65
2023/04/30 12:04:18;;;;;;;2.90;1.30;;;;;;;20.86;35.28;100921.00;4806803;29;20320;-65
2023/04/30 12:06:46;;;;;;;4.80;1.60;;;;;;;20.78;36.00;100915.81;4806192;29;20220;-66
2023/04/30 12:09:14;;;;;;;2.60;1.50;;;;;;;20.68;35.78;100910.81;4805797;29;20222;-66
2023/04/30 12:11:41;;;;;;;2.57;1.30;;;;;;;20.63;35.63;100913.28;4806622;29;20224;-66
2023/04/30 12:14:11;;;;;;;4.13;1.50;;;;;;;20.52;36.31;100911.19;4809690;29;20208;-65
2023/04/30 12:16:41;;;;;;;2.60;1.30;;;;;;;20.48;36.36;100905.38;4805728;29;20241;-65
2023/04/30 12:19:09;;;;;;;4.40;1.43;;;;;;;20.47;36.23;100898.31;4806959;29;20299;-64
2023/04/30 12:21:39;;;;;;;2.33;1.23;;;;;;;20.42;36.41;100903.47;4807806;29;20319;-65
2023/04/30 12:24:10;;;;;;;5.63;1.47;;;;;;;20.42;36.74;100903.47;4809407;29;20245;-64
2023/04/30 12:26:39;;;;;;;3.30;1.60;;;;;;;20.34;35.99;100903.66;4809506;29;20930;-64
2023/04/30 12:29:10;;;;;;;2.70;1.50;;;;;;;20.29;36.54;100900.72;4810339;29;20216;-69
2023/04/30 12:31:42;;;;;;;4.03;1.70;;;;;;;20.32;36.96;100894.91;4805978;29;20372;-65
2023/04/30 12:34:13;;;;;;;4.30;1.33;;;;;;;20.33;37.63;100896.56;4807048;29;20208;-64
2023/04/30 12:37:17;;;;;;;6.40;2.23;;;;;;;20.33;37.46;100885.78;4807545;29;20220;-68
2023/04/30 12:40:09;;;;;;;10.70;2.90;;;;;;;20.40;38.56;100880.50;4808392;29;20315;-67
2023/04/30 12:43:21;;;;;;;2.80;1.20;;;;;;;20.44;36.23;100887.94;4741069;30;20338;-70
2023/04/30 12:45:51;;;;;;;3.33;1.20;;;;;;;20.37;34.87;100879.03;4767439;29;20221;-67
2023/04/30 12:49:03;;;;;;;5.03;1.20;;;;;;;20.14;35.19;100881.19;4808809;29;20255;-68
2023/04/30 12:51:33;;;;;;;4.57;1.20;;;;;;;20.26;34.82;100868.78;4804577;29;20231;-65
2023/04/30 12:54:02;;;;;;;2.90;1.10;;;;;;;20.37;35.13;100873.63;4805289;29;20248;-64
2023/04/30 12:56:30;;;;;;;1.87;1.10;;;;;;;20.50;35.14;100878.22;4803830;29;20655;-65
2023/04/30 12:58:58;;;;;;;2.47;1.33;;;;;;;20.55;35.44;100867.69;4805761;29;20374;-64
2023/04/30 13:01:32;;;;;;;2.23;1.23;;;;;;;20.48;35.28;100851.50;4804102;29;20282;-64
2023/04/30 13:04:00;;;;;;;5.50;1.67;;;;;;;20.56;35.86;100856.69;4804825;29;20272;-64
2023/04/30 13:06:29;;;;;;;4.53;1.60;;;;;;;20.78;36.28;100856.50;4804294;29;21367;-65
2023/04/30 13:09:18;;;;;;;1.63;1.10;;;;;;;20.80;36.02;100849.06;4803871;29;20765;-64
2023/04/30 13:11:46;;;;;;;2.47;1.20;;;;;;;20.77;36.26;100850.28;4809510;29;20701;-64
2023/04/30 13:14:14;;;;;;;1.97;1.10;;;;;;;20.85;35.98;100847.41;4805742;29;21975;-64
2023/04/30 13:16:42;;;;;;;4.50;1.40;;;;;;;20.93;35.34;100836.41;4808308;29;20583;-65
2023/04/30 13:19:13;;;;;;;3.20;1.23;;;;;;;21.00;34.52;100841.81;4808006;29;20220;-64
2023/04/30 13:21:41;;;;;;;2.60;1.37;;;;;;;20.91;33.76;100840.38;4804065;29;20703;-65
2023/04/30 13:24:09;;;;;;;3.03;1.60;;;;;;;20.89;34.63;100831.66;4805114;29;20323;-63
2023/04/30 13:26:39;;;;;;;3.13;1.17;;;;;;;20.93;34.10;100830.22;4808682;29;20231;-64
2023/04/30 13:29:07;;;;;;;2.13;1.20;;;;;;;20.94;34.58;100829.97;4809179;29;20220;-64
2023/04/30 13:31:35;;;;;;;2.07;1.20;;;;;;;21.00;34.51;100820.25;4810676;29;20224;-65
2023/04/30 13:34:03;;;;;;;2.13;1.20;;;;;;;21.05;34.05;100820.44;4809851;29;20220;-64
2023/04/30 13:36:32;;;;;;;3.70;1.00;;;;;;;21.16;34.07;100814.44;4810154;29;20244;-64
2023/04/30 13:39:00;;;;;;;2.47;1.20;;;;;;;21.21;34.39;100814.66;4810421;29;20213;-65
2023/04/30 13:41:27;;;;;;;2.50;1.10;;;;;;;21.21;34.30;100809.25;4809632;29;20665;-65
2023/04/30 13:43:58;;;;;;;2.47;1.20;;;;;;;21.24;33.91;100811.56;4812070;29;20339;-64
2023/04/30 13:46:26;;;;;;;4.03;1.10;;;;;;;21.30;33.52;100813.41;4812046;29;20216;-64
2023/04/30 13:48:54;;;;;;;2.93;1.20;;;;;;;21.20;33.35;100810.31;4809831;29;20216;-64
2023/04/30 13:51:22;;;;;;;2.23;1.03;;;;;;;21.30;33.68;100813.41;4808692;29;20265;-62
2023/04/30 13:53:50;;;;;;;4.87;1.50;;;;;;;21.28;34.03;100815.50;4807666;29;20620;-65
2023/04/30 13:56:18;;;;;;;2.63;1.40;;;;;;;21.27;34.37;100807.63;4810332;29;20340;-64
2023/04/30 13:58:46;;;;;;;3.07;1.60;;;;;;;21.29;33.91;100809.03;4803970;29;20276;-64
2023/04/30 14:01:15;;;;;;;2.70;1.20;;;;;;;21.22;33.68;100796.63;4790017;29;20692;-65
2023/04/30 14:03:43;;;;;;;1.70;1.10;;;;;;;21.26;33.22;100800.56;4792465;29;20271;-63
2023/04/30 14:06:11;;;;;;;2.67;1.20;;;;;;;21.26;33.43;100798.69;4791507;29;20224;-65
2023/04/30 14:08:39;;;;;;;4.37;1.40;;;;;;;21.26;33.65;100798.69;4792947;29;20587;-64
2023/04/30 14:11:13;;;;;;;2.20;1.30;;;;;;;21.23;34.16;100799.09;4791538;29;20245;-64
2023/04/30 14:13:41;;;;;;;1.77;1.20;;;;;;;21.30;34.09;100797.22;4792665;29;20299;-63
2023/04/30 14:16:09;;;;;;;3.70;2.03;;;;;;;21.20;33.88;100796.81;4792858;29;20221;-64
2023/04/30 14:18:38;;;;;;;3.73;1.13;;;;;;;21.29;33.99;100795.56;4792647;29;20303;-63
2023/04/30 14:21:06;;;;;;;4.77;1.57;;;;;;;21.23;33.85;100791.00;4791510;29;20225;-64
2023/04/30 14:23:34;;;;;;;2.30;1.27;;;;;;;21.17;34.46;100791.88;4793482;29;20603;-64
2023/04/30 14:26:02;;;;;;;2.00;1.20;;;;;;;21.11;34.30;100789.94;4792162;29;20747;-65
2023/04/30 14:28:29;;;;;;;2.57;1.30;;;;;;;21.00;34.49;100786.03;4790720;29;21081;-66
2023/04/30 14:30:57;;;;;;;2.83;1.23;;;;;;;20.94;34.05;100781.47;4791221;29;20221;-65
2023/04/30 14:33:25;;;;;;;2.47;1.23;;;;;;;20.97;34.31;100781.06;4794056;29;20217;-65
2023/04/30 14:35:55;;;;;;;2.67;1.03;;;;;;;21.09;34.74;100773.19;4788335;29;20225;-64
2023/04/30 14:38:39;;;;;;;3.10;1.20;;;;;;;21.15;34.63;100766.94;4802477;29;20248;-67
2023/04/30 14:41:08;;;;;;;2.33;1.10;;;;;;;21.03;34.31;100774.00;4804273;29;20218;-67
2023/04/30 14:43:35;;;;;;;3.10;1.30;;;;;;;21.09;34.10;100777.75;4806280;29;20415;-67
2023/04/30 14:46:03;;;;;;;3.03;1.07;;;;;;;21.08;34.14;100766.13;4805621;29;20217;-67
2023/04/30 14:48:32;;;;;;;2.20;1.20;;;;;;;21.12;34.39;100763.81;4806480;29;20221;-66
2023/04/30 14:51:04;;;;;;;2.77;1.40;;;;;;;21.02;33.75;100761.56;4802896;29;20247;-65
2023/04/30 14:53:33;;;;;;;2.87;1.10;;;;;;;20.90;34.22;100755.16;4806003;29;20217;-67
2023/04/30 14:58:56;;;;;;;3.57;1.17;;;;;;;20.86;34.24;100761.97;4804685;29;20376;-67
2023/04/30 15:01:32;;;;;;;1.93;1.10;;;;;;;20.86;34.17;100751.19;4807146;29;20237;-66
2023/04/30 15:04:03;;;;;;;1.97;1.13;;;;;;;20.87;34.68;100742.06;4760087;29;20233;-66
2023/04/30 15:06:32;;;;;;;1.47;1.00;;;;;;;20.74;34.22;100744.78;4804516;29;20288;-68
2023/04/30 15:09:01;;;;;;;3.40;1.20;;;;;;;20.72;33.75;100738.78;4803577;29;20222;-68
2023/04/30 15:11:30;;;;;;;4.87;1.40;;;;;;;20.83;33.63;100741.69;4804536;29;20221;-68
2023/04/30 15:14:02;;;;;;;1.47;1.07;;;;;;;20.93;33.87;100736.66;4806497;29;20209;-67
2023/04/30 15:16:33;;;;;;;2.50;1.10;;;;;;;20.97;34.13;100734.41;4803544;29;20746;-67
2023/04/30 15:19:04;;;;;;;2.53;1.00;;;;;;;21.07;35.10;100739.38;4804991;29;20221;-67
2023/04/30 15:21:40;;;;;;;3.50;1.40;;;;;;;21.05;34.17;100742.25;4803200;29;20668;-68
2023/04/30 15:24:16;;;;;;;4.93;1.10;;;;;;;21.00;34.32;100736.69;4804288;29;20625;-68
2023/04/30 15:26:54;;;;;;;2.93;1.03;;;;;;;21.04;34.42;100740.59;4804858;29;20233;-67
2023/04/30 15:29:30;;;;;;;1.90;1.03;;;;;;;20.88;34.49;100732.97;4806333;29;20216;-68
2023/04/30 15:31:59;;;;;;;2.50;1.30;;;;;;;20.86;34.07;100743.09;4802976;29;20217;-66
2023/04/30 15:34:27;;;;;;;2.70;1.20;;;;;;;20.78;34.01;100744.16;4802661;29;20286;-67
2023/04/30 15:36:57;;;;;;;3.60;1.20;;;;;;;20.75;33.76;100735.69;4802103;29;20260;-68
2023/04/30 15:39:28;;;;;;;1.53;1.00;;;;;;;20.80;33.68;100733.16;4804012;29;20209;-65
2023/04/30 15:41:56;;;;;;;2.17;1.00;;;;;;;20.87;34.16;100728.59;4805459;29;20209;-67
2023/04/30 15:44:24;;;;;;;1.50;0.90;;;;;;;20.92;34.34;100734.22;4802454;29;20248;-67
2023/04/30 15:46:52;;;;;;;1.60;1.07;;;;;;;20.98;34.27;100727.97;4804564;29;20224;-68
2023/04/30 15:49:21;;;;;;;3.30;1.00;;;;;;;20.95;34.85;100733.78;4800633;29;20209;-66
2023/04/30 15:51:51;;;;;;;2.27;1.03;;;;;;;20.82;33.80;100726.53;4802449;29;20582;-67
2023/04/30 15:54:22;;;;;;;4.83;1.27;;;;;;;20.84;34.28;100715.56;4801119;29;20225;-69
2023/04/30 15:56:50;;;;;;;2.60;0.90;;;;;;;20.93;34.39;100709.72;4798361;29;20222;-67
2023/04/30 15:59:18;;;;;;;2.70;1.17;;;;;;;20.88;33.98;100711.41;4801079;29;20249;-67
2023/04/30 16:01:47;;;;;;;3.90;0.90;;;;;;;20.77;33.79;100709.31;4803389;29;20224;-68
2023/04/30 16:04:17;;;;;;;2.50;1.07;;;;;;;20.72;34.04;100707.28;4801492;29;20284;-67
2023/04/30 16:06:46;;;;;;;3.53;1.10;;;;;;;20.70;33.85;100708.50;4801513;29;20221;-65
2023/04/30 16:09:18;;;;;;;1.87;0.97;;;;;;;20.73;34.26;100703.53;4803943;29;20220;-68
2023/04/30 16:11:48;;;;;;;2.63;1.10;;;;;;;20.77;34.09;100698.53;4800680;29;20217;-66
2023/04/30 16:14:15;;;;;;;1.67;0.90;;;;;;;20.81;34.48;100697.94;4803149;29;20228;-66
2023/04/30 16:16:43;;;;;;;2.37;0.90;;;;;;;20.79;33.99;100691.91;4800377;29;20217;-66
2023/04/30 16:19:11;;;;;;;2.10;1.20;;;;;;;20.65;33.83;100685.72;4801919;29;20511;-66
2023/04/30 16:21:40;;;;;;;1.63;1.00;;;;;;;20.72;34.47;100690.28;4801574;29;20324;-65
2023/04/30 16:24:09;;;;;;;2.03;1.03;;;;;;;20.67;34.67;100680.94;4803848;29;20264;-67
2023/04/30 16:26:36;;;;;;;2.43;1.20;;;;;;;20.70;33.90;100684.25;4804079;29;20239;-67
2023/04/30 16:29:06;;;;;;;3.37;1.10;;;;;;;20.70;33.80;100686.94;4801580;29;20217;-67
2023/04/30 16:31:33;;;;;;;3.40;2.23;;;;;;;20.61;33.90;100694.41;4799367;29;20220;-67
2023/04/30 16:34:01;;;;;;;3.70;2.30;;;;;;;20.57;34.01;100683.25;4802630;29;20221;-67
2023/04/30 16:36:29;;;;;;;3.33;1.90;;;;;;;20.50;34.33;100687.78;4799553;29;21660;-65
2023/04/30 16:38:57;;;;;;;2.10;1.10;;;;;;;20.54;34.21;100682.81;4801732;29;20251;-68
2023/04/30 16:41:25;;;;;;;2.00;1.30;;;;;;;20.48;34.12;100673.72;4804365;29;20241;-67
2023/04/30 16:43:53;;;;;;;2.10;1.07;;;;;;;20.49;34.87;100675.34;4802122;29;20217;-68
2023/04/30 16:46:22;;;;;;;2.93;1.10;;;;;;;20.49;35.12;100675.34;4801264;29;20241;-66
2023/04/30 16:48:53;;;;;;;3.03;1.27;;;;;;;20.43;34.85;100669.97;4802087;29;20241;-65
2023/04/30 16:51:21;;;;;;;3.07;0.90;;;;;;;20.40;34.25;100665.84;4802636;29;20288;-68
2023/04/30 16:53:48;;;;;;;2.13;1.10;;;;;;;20.39;34.65;100669.56;4801936;29;20233;-67
2023/04/30 16:56:16;;;;;;;1.87;0.90;;;;;;;20.37;35.05;100663.56;4799476;29;20213;-68
2023/04/30 16:58:44;;;;;;;2.97;1.10;;;;;;;20.36;34.74;100656.50;4801638;29;20283;-68
2023/04/30 17:01:12;;;;;;;2.43;1.07;;;;;;;20.33;35.17;100654.19;4802077;29;20221;-67
2023/04/30 17:03:41;;;;;;;2.10;1.07;;;;;;;20.31;35.37;100658.97;4803695;29;20223;-68
2023/04/30 17:06:10;;;;;;;2.27;1.03;;;;;;;20.31;34.86;100652.75;4801395;29;20297;-68
2023/04/30 17:08:39;;;;;;;3.03;1.20;;;;;;;20.28;34.78;100652.13;4799541;29;20241;-65
2023/04/30 17:11:08;;;;;;;3.50;1.43;;;;;;;20.24;34.95;100647.34;4802070;29;20238;-68
2023/04/30 17:13:38;;;;;;;2.80;1.13;;;;;;;20.24;35.19;100648.19;4806411;29;20213;-68
2023/04/30 17:16:07;;;;;;;1.90;1.10;;;;;;;20.24;35.14;100645.50;4802312;29;20217;-67
2023/04/30 17:18:35;;;;;;;4.47;1.40;;;;;;;20.21;34.98;100650.47;4801111;29;20213;-66
2023/04/30 17:21:05;;;;;;;3.67;1.40;;;;;;;20.21;35.29;100645.09;4803432;29;20217;-67
2023/04/30 17:23:33;;;;;;;2.20;1.33;;;;;;;20.21;35.06;100655.88;4803559;29;20578;-68
2023/04/30 17:26:02;;;;;;;4.40;1.30;;;;;;;20.17;35.04;100650.06;4801954;29;20268;-67
2023/04/30 17:28:36;;;;;;;1.83;1.10;;;;;;;20.17;34.89;100647.34;4801708;29;20210;-67